sensor_id;sensor_type;location;lat;lon;timestamp;temperature;humidity
19000;DHT22;9633;50.980;13.850;2022-08-06T00:00:12;16.50;99.90
19000;DHT22;9633;50.980;13.850;2022-08-06T00:01:45;16.40;99.90
19000;DHT22;9633;50.980;13.850;2022-08-06T00:03:18;16.40;99.90
19000;DHT22;9633;50.980;13.850;2022-08-06T00:04:53;16.40;99.90
19000;DHT22;9633;50.980;13.850;2022-08-06T00:06:28;16.30;99.90
19000;DHT22;9633;50.980;13.850;2022-08-06T00:08:02;16.30;99.90
19000;DHT22;9633;50.980;13.850;2022-08-06T00:09:39;16.30;99.90
19000;DHT22;9633;50.980;13.850;2022-08-06T00:11:31;16.40;99.90
19000;DHT22;9633;50.980;13.850;2022-08-06T00:13:04;16.50;99.90
19000;DHT22;9633;50.980;13.850;2022-08-06T00:14:45;16.50;99.90
19000;DHT22;9633;50.980;13.850;2022-08-06T00:16:18;16.60;99.90
19000;DHT22;9633;50.980;13.850;2022-08-06T00:18:02;16.60;99.90
19000;DHT22;9633;50.980;13.850;2022-08-06T00:19:36;16.60;99.90
19000;DHT22;9633;50.980;13.850;2022-08-06T00:21:29;16.60;99.90
19000;DHT22;9633;50.980;13.850;2022-08-06T00:23:13;16.50;99.90
19000;DHT22;9633;50.980;13.850;2022-08-06T00:24:49;16.50;99.90
19000;DHT22;9633;50.980;13.850;2022-08-06T00:26:23;16.50;99.90
19000;DHT22;9633;50.980;13.850;2022-08-06T00:27:59;16.60;99.90
19000;DHT22;9633;50.980;13.850;2022-08-06T00:29:40;16.60;99.90
19000;DHT22;9633;50.980;13.850;2022-08-06T00:31:22;16.70;99.90
19000;DHT22;9633;50.980;13.850;2022-08-06T00:33:01;16.70;99.90
19000;DHT22;9633;50.980;13.850;2022-08-06T00:34:35;16.70;99.90
19000;DHT22;9633;50.980;13.850;2022-08-06T00:36:10;16.70;99.90
19000;DHT22;9633;50.980;13.850;2022-08-06T00:37:44;16.70;99.90
19000;DHT22;9633;50.980;13.850;2022-08-06T00:39:29;16.60;99.90
19000;DHT22;9633;50.980;13.850;2022-08-06T00:41:06;16.70;99.90
19000;DHT22;9633;50.980;13.850;2022-08-06T00:42:38;16.70;99.90
19000;DHT22;9633;50.980;13.850;2022-08-06T00:44:13;16.70;99.90
19000;DHT22;9633;50.980;13.850;2022-08-06T00:46:02;16.60;99.90
19000;DHT22;9633;50.980;13.850;2022-08-06T00:47:35;16.40;99.90
19000;DHT22;9633;50.980;13.850;2022-08-06T00:49:28;16.30;99.90
19000;DHT22;9633;50.980;13.850;2022-08-06T00:51:21;16.20;99.90
19000;DHT22;9633;50.980;13.850;2022-08-06T00:53:03;16.10;99.90
19000;DHT22;9633;50.980;13.850;2022-08-06T00:54:37;16.00;99.90
19000;DHT22;9633;50.980;13.850;2022-08-06T00:56:12;16.10;99.90
19000;DHT22;9633;50.980;13.850;2022-08-06T00:57:46;16.00;99.90
19000;DHT22;9633;50.980;13.850;2022-08-06T00:59:19;16.10;99.90
19000;DHT22;9633;50.980;13.850;2022-08-06T01:00:53;16.20;99.90
19000;DHT22;9633;50.980;13.850;2022-08-06T01:02:30;16.20;99.90
19000;DHT22;9633;50.980;13.850;2022-08-06T01:04:04;16.30;99.90
19000;DHT22;9633;50.980;13.850;2022-08-06T01:05:37;16.40;99.90
19000;DHT22;9633;50.980;13.850;2022-08-06T01:07:30;16.40;99.90
19000;DHT22;9633;50.980;13.850;2022-08-06T01:09:23;16.40;99.90
19000;DHT22;9633;50.980;13.850;2022-08-06T01:10:56;16.30;99.90
19000;DHT22;9633;50.980;13.850;2022-08-06T01:12:31;16.30;99.90
19000;DHT22;9633;50.980;13.850;2022-08-06T01:14:07;16.30;99.90
19000;DHT22;9633;50.980;13.850;2022-08-06T01:15:43;16.30;99.90
19000;DHT22;9633;50.980;13.850;2022-08-06T01:17:45;16.30;99.90
19000;DHT22;9633;50.980;13.850;2022-08-06T01:19:46;16.40;99.90
19000;DHT22;9633;50.980;13.850;2022-08-06T01:22:01;16.40;99.90
19000;DHT22;9633;50.980;13.850;2022-08-06T01:24:19;16.40;99.90
19000;DHT22;9633;50.980;13.850;2022-08-06T01:26:16;16.40;99.90
19000;DHT22;9633;50.980;13.850;2022-08-06T01:28:00;16.50;99.90
19000;DHT22;9633;50.980;13.850;2022-08-06T01:29:39;16.50;99.90
19000;DHT22;9633;50.980;13.850;2022-08-06T01:31:16;16.50;99.90
19000;DHT22;9633;50.980;13.850;2022-08-06T01:32:54;16.50;99.90
19000;DHT22;9633;50.980;13.850;2022-08-06T01:34:33;16.50;99.90
19000;DHT22;9633;50.980;13.850;2022-08-06T01:36:14;16.40;99.90
19000;DHT22;9633;50.980;13.850;2022-08-06T01:37:55;16.40;99.90
19000;DHT22;9633;50.980;13.850;2022-08-06T01:39:32;16.40;99.90
19000;DHT22;9633;50.980;13.850;2022-08-06T01:41:38;16.30;99.90
19000;DHT22;9633;50.980;13.850;2022-08-06T01:43:32;16.20;99.90
19000;DHT22;9633;50.980;13.850;2022-08-06T01:45:30;16.10;99.90
19000;DHT22;9633;50.980;13.850;2022-08-06T01:47:27;16.10;99.90
19000;DHT22;9633;50.980;13.850;2022-08-06T01:49:24;16.10;99.90
19000;DHT22;9633;50.980;13.850;2022-08-06T01:51:18;16.10;99.90
19000;DHT22;9633;50.980;13.850;2022-08-06T01:53:14;16.10;99.90
19000;DHT22;9633;50.980;13.850;2022-08-06T01:55:10;16.10;99.90
19000;DHT22;9633;50.980;13.850;2022-08-06T01:56:52;16.20;99.90
19000;DHT22;9633;50.980;13.850;2022-08-06T01:58:32;16.10;99.90
19000;DHT22;9633;50.980;13.850;2022-08-06T02:00:07;16.20;99.90
19000;DHT22;9633;50.980;13.850;2022-08-06T02:01:43;16.30;99.90
19000;DHT22;9633;50.980;13.850;2022-08-06T02:03:30;16.30;99.90
19000;DHT22;9633;50.980;13.850;2022-08-06T02:05:21;16.30;99.90
19000;DHT22;9633;50.980;13.850;2022-08-06T02:07:05;16.40;99.90
19000;DHT22;9633;50.980;13.850;2022-08-06T02:09:02;16.30;99.90
19000;DHT22;9633;50.980;13.850;2022-08-06T02:10:57;16.40;99.90
19000;DHT22;9633;50.980;13.850;2022-08-06T02:12:51;16.50;99.90
19000;DHT22;9633;50.980;13.850;2022-08-06T02:14:27;16.50;99.90
19000;DHT22;9633;50.980;13.850;2022-08-06T02:16:04;16.60;99.90
19000;DHT22;9633;50.980;13.850;2022-08-06T02:17:47;16.60;99.90
19000;DHT22;9633;50.980;13.850;2022-08-06T02:19:37;16.50;99.90
19000;DHT22;9633;50.980;13.850;2022-08-06T02:21:33;16.50;99.90
19000;DHT22;9633;50.980;13.850;2022-08-06T02:23:13;16.50;99.90
19000;DHT22;9633;50.980;13.850;2022-08-06T02:24:48;16.30;99.90
19000;DHT22;9633;50.980;13.850;2022-08-06T02:26:24;16.30;99.90
19000;DHT22;9633;50.980;13.850;2022-08-06T02:28:05;16.30;99.90
19000;DHT22;9633;50.980;13.850;2022-08-06T02:29:42;16.30;99.90
19000;DHT22;9633;50.980;13.850;2022-08-06T02:31:37;16.30;99.90
19000;DHT22;9633;50.980;13.850;2022-08-06T02:33:22;16.30;99.90
19000;DHT22;9633;50.980;13.850;2022-08-06T02:35:16;16.30;99.90
19000;DHT22;9633;50.980;13.850;2022-08-06T02:36:57;16.30;99.90
19000;DHT22;9633;50.980;13.850;2022-08-06T02:38:35;16.40;99.90
19000;DHT22;9633;50.980;13.850;2022-08-06T02:40:25;16.40;99.90
19000;DHT22;9633;50.980;13.850;2022-08-06T02:42:06;16.30;99.90
19000;DHT22;9633;50.980;13.850;2022-08-06T02:43:51;16.40;99.90
19000;DHT22;9633;50.980;13.850;2022-08-06T02:45:33;16.30;99.90
19000;DHT22;9633;50.980;13.850;2022-08-06T02:47:11;16.40;99.90
19000;DHT22;9633;50.980;13.850;2022-08-06T02:48:51;16.20;99.90
19000;DHT22;9633;50.980;13.850;2022-08-06T02:50:31;16.30;99.90
19000;DHT22;9633;50.980;13.850;2022-08-06T02:52:13;16.30;99.90
19000;DHT22;9633;50.980;13.850;2022-08-06T02:54:06;16.30;99.90
19000;DHT22;9633;50.980;13.850;2022-08-06T02:55:45;16.30;99.90
19000;DHT22;9633;50.980;13.850;2022-08-06T02:57:22;16.30;99.90
19000;DHT22;9633;50.980;13.850;2022-08-06T02:58:56;16.30;99.90
19000;DHT22;9633;50.980;13.850;2022-08-06T03:00:33;16.30;99.90
19000;DHT22;9633;50.980;13.850;2022-08-06T03:02:10;16.30;99.90
19000;DHT22;9633;50.980;13.850;2022-08-06T03:03:47;16.30;99.90
19000;DHT22;9633;50.980;13.850;2022-08-06T03:05:30;16.30;99.90
19000;DHT22;9633;50.980;13.850;2022-08-06T03:07:26;16.30;99.90
19000;DHT22;9633;50.980;13.850;2022-08-06T03:09:03;16.30;99.90
19000;DHT22;9633;50.980;13.850;2022-08-06T03:10:37;16.10;99.90
19000;DHT22;9633;50.980;13.850;2022-08-06T03:12:09;16.00;99.90
19000;DHT22;9633;50.980;13.850;2022-08-06T03:14:03;16.00;99.90
19000;DHT22;9633;50.980;13.850;2022-08-06T03:15:59;16.00;99.90
19000;DHT22;9633;50.980;13.850;2022-08-06T03:17:34;15.90;99.90
19000;DHT22;9633;50.980;13.850;2022-08-06T03:19:08;15.90;99.90
19000;DHT22;9633;50.980;13.850;2022-08-06T03:21:03;15.90;99.90
19000;DHT22;9633;50.980;13.850;2022-08-06T03:22:41;15.80;99.90
19000;DHT22;9633;50.980;13.850;2022-08-06T03:24:17;15.80;99.90
19000;DHT22;9633;50.980;13.850;2022-08-06T03:25:51;15.80;99.90
19000;DHT22;9633;50.980;13.850;2022-08-06T03:27:25;15.70;99.90
19000;DHT22;9633;50.980;13.850;2022-08-06T03:29:00;15.70;99.90
19000;DHT22;9633;50.980;13.850;2022-08-06T03:30:34;15.70;99.90
19000;DHT22;9633;50.980;13.850;2022-08-06T03:32:12;15.60;99.90
19000;DHT22;9633;50.980;13.850;2022-08-06T03:34:06;15.70;99.90
19000;DHT22;9633;50.980;13.850;2022-08-06T03:35:40;15.70;99.90
19000;DHT22;9633;50.980;13.850;2022-08-06T03:37:22;15.70;99.90
19000;DHT22;9633;50.980;13.850;2022-08-06T03:39:16;15.60;99.90
19000;DHT22;9633;50.980;13.850;2022-08-06T03:40:57;15.60;99.90
19000;DHT22;9633;50.980;13.850;2022-08-06T03:42:32;15.60;99.90
19000;DHT22;9633;50.980;13.850;2022-08-06T03:44:08;15.50;99.90
19000;DHT22;9633;50.980;13.850;2022-08-06T03:45:46;15.50;99.90
19000;DHT22;9633;50.980;13.850;2022-08-06T03:47:31;15.50;99.90
19000;DHT22;9633;50.980;13.850;2022-08-06T03:49:29;15.60;99.90
19000;DHT22;9633;50.980;13.850;2022-08-06T03:51:16;15.60;99.90
19000;DHT22;9633;50.980;13.850;2022-08-06T03:53:17;15.50;99.90
19000;DHT22;9633;50.980;13.850;2022-08-06T03:55:01;15.50;99.90
19000;DHT22;9633;50.980;13.850;2022-08-06T03:56:37;15.60;99.90
19000;DHT22;9633;50.980;13.850;2022-08-06T03:58:17;15.60;99.90
19000;DHT22;9633;50.980;13.850;2022-08-06T04:00:00;15.60;99.90
19000;DHT22;9633;50.980;13.850;2022-08-06T04:01:45;15.50;99.90
19000;DHT22;9633;50.980;13.850;2022-08-06T04:03:23;15.60;99.90
19000;DHT22;9633;50.980;13.850;2022-08-06T04:05:01;15.60;99.90
19000;DHT22;9633;50.980;13.850;2022-08-06T04:06:38;15.60;99.90
19000;DHT22;9633;50.980;13.850;2022-08-06T04:08:14;15.60;99.90
19000;DHT22;9633;50.980;13.850;2022-08-06T04:09:48;15.60;99.90
19000;DHT22;9633;50.980;13.850;2022-08-06T04:11:32;15.60;99.90
19000;DHT22;9633;50.980;13.850;2022-08-06T04:13:27;15.50;99.90
19000;DHT22;9633;50.980;13.850;2022-08-06T04:15:21;15.50;99.90
19000;DHT22;9633;50.980;13.850;2022-08-06T04:16:58;15.40;99.90
19000;DHT22;9633;50.980;13.850;2022-08-06T04:18:37;15.30;99.90
19000;DHT22;9633;50.980;13.850;2022-08-06T04:20:16;15.30;99.90
19000;DHT22;9633;50.980;13.850;2022-08-06T04:22:09;15.20;99.90
19000;DHT22;9633;50.980;13.850;2022-08-06T04:24:03;15.20;99.90
19000;DHT22;9633;50.980;13.850;2022-08-06T04:25:49;15.20;99.90
19000;DHT22;9633;50.980;13.850;2022-08-06T04:27:27;15.20;99.90
19000;DHT22;9633;50.980;13.850;2022-08-06T04:29:02;15.10;99.90
19000;DHT22;9633;50.980;13.850;2022-08-06T04:30:37;15.10;99.90
19000;DHT22;9633;50.980;13.850;2022-08-06T04:32:18;15.00;99.90
19000;DHT22;9633;50.980;13.850;2022-08-06T04:34:04;15.00;99.90
19000;DHT22;9633;50.980;13.850;2022-08-06T04:35:42;15.00;99.90
19000;DHT22;9633;50.980;13.850;2022-08-06T04:37:36;15.10;99.90
19000;DHT22;9633;50.980;13.850;2022-08-06T04:39:12;15.10;99.90
19000;DHT22;9633;50.980;13.850;2022-08-06T04:40:51;15.00;99.90
19000;DHT22;9633;50.980;13.850;2022-08-06T04:42:26;15.00;99.90
19000;DHT22;9633;50.980;13.850;2022-08-06T04:44:00;14.90;99.90
19000;DHT22;9633;50.980;13.850;2022-08-06T04:45:34;14.90;99.90
19000;DHT22;9633;50.980;13.850;2022-08-06T04:47:29;14.90;99.90
19000;DHT22;9633;50.980;13.850;2022-08-06T04:49:14;14.90;99.90
19000;DHT22;9633;50.980;13.850;2022-08-06T04:50:49;14.90;99.90
19000;DHT22;9633;50.980;13.850;2022-08-06T04:52:27;15.00;99.90
19000;DHT22;9633;50.980;13.850;2022-08-06T04:54:08;15.00;99.90
19000;DHT22;9633;50.980;13.850;2022-08-06T04:55:45;15.00;99.90
19000;DHT22;9633;50.980;13.850;2022-08-06T04:57:34;14.90;99.90
19000;DHT22;9633;50.980;13.850;2022-08-06T04:59:28;15.00;99.90
19000;DHT22;9633;50.980;13.850;2022-08-06T05:01:21;15.00;99.90
19000;DHT22;9633;50.980;13.850;2022-08-06T05:02:58;14.90;99.90
19000;DHT22;9633;50.980;13.850;2022-08-06T05:04:33;15.00;99.90
19000;DHT22;9633;50.980;13.850;2022-08-06T05:06:20;15.00;99.90
19000;DHT22;9633;50.980;13.850;2022-08-06T05:07:56;15.00;99.90
19000;DHT22;9633;50.980;13.850;2022-08-06T05:09:32;14.90;99.90
19000;DHT22;9633;50.980;13.850;2022-08-06T05:11:16;15.10;99.90
19000;DHT22;9633;50.980;13.850;2022-08-06T05:12:55;15.10;99.90
19000;DHT22;9633;50.980;13.850;2022-08-06T05:14:35;15.20;99.90
19000;DHT22;9633;50.980;13.850;2022-08-06T05:16:13;15.20;99.90
19000;DHT22;9633;50.980;13.850;2022-08-06T05:17:51;15.20;99.90
19000;DHT22;9633;50.980;13.850;2022-08-06T05:19:38;15.10;99.90
19000;DHT22;9633;50.980;13.850;2022-08-06T05:21:17;15.20;99.90
19000;DHT22;9633;50.980;13.850;2022-08-06T05:23:12;15.20;99.90
19000;DHT22;9633;50.980;13.850;2022-08-06T05:24:52;15.00;99.90
19000;DHT22;9633;50.980;13.850;2022-08-06T05:26:36;15.20;99.90
19000;DHT22;9633;50.980;13.850;2022-08-06T05:28:11;15.40;99.90
19000;DHT22;9633;50.980;13.850;2022-08-06T05:29:44;15.50;99.90
19000;DHT22;9633;50.980;13.850;2022-08-06T05:31:30;15.70;99.90
19000;DHT22;9633;50.980;13.850;2022-08-06T05:33:10;15.80;99.90
19000;DHT22;9633;50.980;13.850;2022-08-06T05:34:49;15.80;99.90
19000;DHT22;9633;50.980;13.850;2022-08-06T05:36:24;16.00;99.90
19000;DHT22;9633;50.980;13.850;2022-08-06T05:38:01;16.20;99.90
19000;DHT22;9633;50.980;13.850;2022-08-06T05:39:35;16.40;99.90
19000;DHT22;9633;50.980;13.850;2022-08-06T05:41:28;16.40;99.90
19000;DHT22;9633;50.980;13.850;2022-08-06T05:43:09;16.30;99.90
19000;DHT22;9633;50.980;13.850;2022-08-06T05:44:44;16.20;99.90
19000;DHT22;9633;50.980;13.850;2022-08-06T05:46:21;16.00;99.90
19000;DHT22;9633;50.980;13.850;2022-08-06T05:47:58;16.20;99.90
19000;DHT22;9633;50.980;13.850;2022-08-06T05:49:38;16.40;99.90
19000;DHT22;9633;50.980;13.850;2022-08-06T05:51:38;16.50;99.90
19000;DHT22;9633;50.980;13.850;2022-08-06T05:53:19;17.40;99.90
19000;DHT22;9633;50.980;13.850;2022-08-06T05:55:18;17.90;90.90
19000;DHT22;9633;50.980;13.850;2022-08-06T05:57:05;17.90;13.80
19000;DHT22;9633;50.980;13.850;2022-08-06T05:58:42;17.90;45.70
19000;DHT22;9633;50.980;13.850;2022-08-06T06:00:27;18.30;1.00
19000;DHT22;9633;50.980;13.850;2022-08-06T06:02:15;18.40;1.00
19000;DHT22;9633;50.980;13.850;2022-08-06T06:03:52;17.90;22.60
19000;DHT22;9633;50.980;13.850;2022-08-06T06:05:27;18.80;10.80
19000;DHT22;9633;50.980;13.850;2022-08-06T06:07:21;18.50;1.00
19000;DHT22;9633;50.980;13.850;2022-08-06T06:09:15;18.00;27.00
19000;DHT22;9633;50.980;13.850;2022-08-06T06:11:09;18.30;34.50
19000;DHT22;9633;50.980;13.850;2022-08-06T06:12:44;18.20;4.60
19000;DHT22;9633;50.980;13.850;2022-08-06T06:14:35;18.70;1.00
19000;DHT22;9633;50.980;13.850;2022-08-06T06:16:15;18.50;1.00
19000;DHT22;9633;50.980;13.850;2022-08-06T06:18:07;18.60;3.40
19000;DHT22;9633;50.980;13.850;2022-08-06T06:20:13;18.10;44.90
19000;DHT22;9633;50.980;13.850;2022-08-06T06:22:16;19.70;1.00
19000;DHT22;9633;50.980;13.850;2022-08-06T06:24:07;19.60;1.00
19000;DHT22;9633;50.980;13.850;2022-08-06T06:25:48;19.00;1.00
19000;DHT22;9633;50.980;13.850;2022-08-06T06:27:34;19.10;1.00
19000;DHT22;9633;50.980;13.850;2022-08-06T06:29:29;19.60;1.00
19000;DHT22;9633;50.980;13.850;2022-08-06T06:31:28;19.40;1.00
19000;DHT22;9633;50.980;13.850;2022-08-06T06:33:26;19.50;1.00
19000;DHT22;9633;50.980;13.850;2022-08-06T06:35:20;17.70;1.20
19000;DHT22;9633;50.980;13.850;2022-08-06T06:37:01;17.90;11.00
19000;DHT22;9633;50.980;13.850;2022-08-06T06:38:42;17.80;10.90
19000;DHT22;9633;50.980;13.850;2022-08-06T06:40:41;17.60;16.30
19000;DHT22;9633;50.980;13.850;2022-08-06T06:42:37;17.90;39.00
19000;DHT22;9633;50.980;13.850;2022-08-06T06:44:16;18.70;7.80
19000;DHT22;9633;50.980;13.850;2022-08-06T06:46:18;18.60;1.90
19000;DHT22;9633;50.980;13.850;2022-08-06T06:48:18;18.90;4.80
19000;DHT22;9633;50.980;13.850;2022-08-06T06:49:56;19.20;1.00
19000;DHT22;9633;50.980;13.850;2022-08-06T06:51:39;18.90;1.00
19000;DHT22;9633;50.980;13.850;2022-08-06T06:53:32;19.00;1.00
19000;DHT22;9633;50.980;13.850;2022-08-06T06:55:32;19.40;1.00
19000;DHT22;9633;50.980;13.850;2022-08-06T06:57:30;19.30;1.00
19000;DHT22;9633;50.980;13.850;2022-08-06T06:59:16;18.40;1.00
19000;DHT22;9633;50.980;13.850;2022-08-06T07:00:52;18.60;1.00
19000;DHT22;9633;50.980;13.850;2022-08-06T07:02:48;18.30;1.00
19000;DHT22;9633;50.980;13.850;2022-08-06T07:04:25;17.60;20.90
19000;DHT22;9633;50.980;13.850;2022-08-06T07:06:01;17.70;31.20
19000;DHT22;9633;50.980;13.850;2022-08-06T07:07:42;17.90;21.90
19000;DHT22;9633;50.980;13.850;2022-08-06T07:09:23;18.60;18.80
19000;DHT22;9633;50.980;13.850;2022-08-06T07:11:18;18.30;7.30
19000;DHT22;9633;50.980;13.850;2022-08-06T07:12:58;18.50;20.80
19000;DHT22;9633;50.980;13.850;2022-08-06T07:14:35;18.10;23.00
19000;DHT22;9633;50.980;13.850;2022-08-06T07:16:11;18.70;1.00
19000;DHT22;9633;50.980;13.850;2022-08-06T07:18:05;18.80;1.00
19000;DHT22;9633;50.980;13.850;2022-08-06T07:20:02;18.30;1.00
19000;DHT22;9633;50.980;13.850;2022-08-06T07:21:41;19.00;1.00
19000;DHT22;9633;50.980;13.850;2022-08-06T07:23:23;18.90;1.00
19000;DHT22;9633;50.980;13.850;2022-08-06T07:25:17;19.20;1.00
19000;DHT22;9633;50.980;13.850;2022-08-06T07:26:57;18.60;1.00
19000;DHT22;9633;50.980;13.850;2022-08-06T07:28:34;19.20;1.00
19000;DHT22;9633;50.980;13.850;2022-08-06T07:30:11;19.10;1.00
19000;DHT22;9633;50.980;13.850;2022-08-06T07:31:46;18.60;1.00
19000;DHT22;9633;50.980;13.850;2022-08-06T07:33:25;19.40;1.00
19000;DHT22;9633;50.980;13.850;2022-08-06T07:35:15;19.90;1.00
19000;DHT22;9633;50.980;13.850;2022-08-06T07:36:52;19.60;1.00
19000;DHT22;9633;50.980;13.850;2022-08-06T07:38:28;19.90;1.00
19000;DHT22;9633;50.980;13.850;2022-08-06T07:40:13;19.10;1.00
19000;DHT22;9633;50.980;13.850;2022-08-06T07:41:49;19.00;1.00
19000;DHT22;9633;50.980;13.850;2022-08-06T07:43:48;19.50;1.00
19000;DHT22;9633;50.980;13.850;2022-08-06T07:45:24;19.80;1.00
19000;DHT22;9633;50.980;13.850;2022-08-06T07:47:04;18.60;1.00
19000;DHT22;9633;50.980;13.850;2022-08-06T07:48:57;18.70;1.00
19000;DHT22;9633;50.980;13.850;2022-08-06T07:50:32;19.40;1.00
19000;DHT22;9633;50.980;13.850;2022-08-06T07:52:08;19.10;1.00
19000;DHT22;9633;50.980;13.850;2022-08-06T07:53:58;19.50;1.00
19000;DHT22;9633;50.980;13.850;2022-08-06T07:55:38;19.50;1.00
19000;DHT22;9633;50.980;13.850;2022-08-06T07:57:12;19.80;1.00
19000;DHT22;9633;50.980;13.850;2022-08-06T07:58:57;19.90;1.00
19000;DHT22;9633;50.980;13.850;2022-08-06T08:00:34;19.20;1.00
19000;DHT22;9633;50.980;13.850;2022-08-06T08:02:10;20.20;1.00
19000;DHT22;9633;50.980;13.850;2022-08-06T08:03:45;21.00;1.00
19000;DHT22;9633;50.980;13.850;2022-08-06T08:05:56;21.40;1.00
19000;DHT22;9633;50.980;13.850;2022-08-06T08:07:48;19.50;1.00
19000;DHT22;9633;50.980;13.850;2022-08-06T08:09:28;19.60;1.00
19000;DHT22;9633;50.980;13.850;2022-08-06T08:11:24;18.70;1.00
19000;DHT22;9633;50.980;13.850;2022-08-06T08:13:18;18.90;1.00
19000;DHT22;9633;50.980;13.850;2022-08-06T08:15:13;19.90;1.00
19000;DHT22;9633;50.980;13.850;2022-08-06T08:16:53;20.80;1.00
19000;DHT22;9633;50.980;13.850;2022-08-06T08:18:30;22.10;1.00
19000;DHT22;9633;50.980;13.850;2022-08-06T08:20:05;22.80;1.00
19000;DHT22;9633;50.980;13.850;2022-08-06T08:21:47;22.30;14.20
19000;DHT22;9633;50.980;13.850;2022-08-06T08:23:20;21.50;1.60
19000;DHT22;9633;50.980;13.850;2022-08-06T08:25:05;20.40;1.00
19000;DHT22;9633;50.980;13.850;2022-08-06T08:26:41;19.80;1.00
19000;DHT22;9633;50.980;13.850;2022-08-06T08:28:34;19.70;1.00
19000;DHT22;9633;50.980;13.850;2022-08-06T08:30:09;19.60;1.00
19000;DHT22;9633;50.980;13.850;2022-08-06T08:31:47;20.30;1.00
19000;DHT22;9633;50.980;13.850;2022-08-06T08:33:31;21.50;1.00
19000;DHT22;9633;50.980;13.850;2022-08-06T08:35:06;20.70;1.00
19000;DHT22;9633;50.980;13.850;2022-08-06T08:36:40;20.40;1.00
19000;DHT22;9633;50.980;13.850;2022-08-06T08:38:13;20.60;1.00
19000;DHT22;9633;50.980;13.850;2022-08-06T08:39:48;20.40;1.00
19000;DHT22;9633;50.980;13.850;2022-08-06T08:41:31;21.10;1.00
19000;DHT22;9633;50.980;13.850;2022-08-06T08:43:22;21.60;1.00
19000;DHT22;9633;50.980;13.850;2022-08-06T08:45:16;21.70;1.00
19000;DHT22;9633;50.980;13.850;2022-08-06T08:46:56;20.90;1.00
19000;DHT22;9633;50.980;13.850;2022-08-06T08:48:31;20.30;1.00
19000;DHT22;9633;50.980;13.850;2022-08-06T08:50:06;21.00;1.00
19000;DHT22;9633;50.980;13.850;2022-08-06T08:51:41;21.60;1.00
19000;DHT22;9633;50.980;13.850;2022-08-06T08:53:25;22.00;1.00
19000;DHT22;9633;50.980;13.850;2022-08-06T08:55:20;21.10;1.00
19000;DHT22;9633;50.980;13.850;2022-08-06T08:57:15;20.80;1.00
19000;DHT22;9633;50.980;13.850;2022-08-06T08:59:09;22.20;1.00
19000;DHT22;9633;50.980;13.850;2022-08-06T09:01:05;23.00;1.00
19000;DHT22;9633;50.980;13.850;2022-08-06T09:03:02;23.60;1.00
19000;DHT22;9633;50.980;13.850;2022-08-06T09:04:39;23.70;15.00
19000;DHT22;9633;50.980;13.850;2022-08-06T09:06:12;22.70;18.60
19000;DHT22;9633;50.980;13.850;2022-08-06T09:08:02;23.60;19.40
19000;DHT22;9633;50.980;13.850;2022-08-06T09:09:37;24.30;22.50
19000;DHT22;9633;50.980;13.850;2022-08-06T09:11:30;24.40;27.40
19000;DHT22;9633;50.980;13.850;2022-08-06T09:13:24;21.60;15.20
19000;DHT22;9633;50.980;13.850;2022-08-06T09:15:17;20.00;1.00
19000;DHT22;9633;50.980;13.850;2022-08-06T09:16:50;20.60;1.00
19000;DHT22;9633;50.980;13.850;2022-08-06T09:18:26;21.30;1.00
19000;DHT22;9633;50.980;13.850;2022-08-06T09:20:00;22.00;1.00
19000;DHT22;9633;50.980;13.850;2022-08-06T09:21:38;21.60;1.00
19000;DHT22;9633;50.980;13.850;2022-08-06T09:23:15;21.30;1.00
19000;DHT22;9633;50.980;13.850;2022-08-06T09:24:50;20.60;1.00
19000;DHT22;9633;50.980;13.850;2022-08-06T09:26:23;21.10;1.00
19000;DHT22;9633;50.980;13.850;2022-08-06T09:28:32;21.00;1.00
19000;DHT22;9633;50.980;13.850;2022-08-06T09:30:07;20.70;1.00
19000;DHT22;9633;50.980;13.850;2022-08-06T09:32:02;21.20;1.00
19000;DHT22;9633;50.980;13.850;2022-08-06T09:33:56;21.50;1.00
19000;DHT22;9633;50.980;13.850;2022-08-06T09:35:57;21.80;1.00
19000;DHT22;9633;50.980;13.850;2022-08-06T09:37:31;22.50;1.00
19000;DHT22;9633;50.980;13.850;2022-08-06T09:39:32;21.70;1.00
19000;DHT22;9633;50.980;13.850;2022-08-06T09:41:28;21.60;1.00
19000;DHT22;9633;50.980;13.850;2022-08-06T09:43:02;21.70;1.00
19000;DHT22;9633;50.980;13.850;2022-08-06T09:44:36;22.10;1.00
19000;DHT22;9633;50.980;13.850;2022-08-06T09:46:13;21.90;1.00
19000;DHT22;9633;50.980;13.850;2022-08-06T09:47:58;21.80;1.00
19000;DHT22;9633;50.980;13.850;2022-08-06T09:49:44;22.00;1.00
19000;DHT22;9633;50.980;13.850;2022-08-06T09:51:31;21.40;1.00
19000;DHT22;9633;50.980;13.850;2022-08-06T09:53:23;21.70;1.00
19000;DHT22;9633;50.980;13.850;2022-08-06T09:54:57;21.80;1.00
19000;DHT22;9633;50.980;13.850;2022-08-06T09:56:32;22.70;1.00
19000;DHT22;9633;50.980;13.850;2022-08-06T09:58:06;22.00;1.00
19000;DHT22;9633;50.980;13.850;2022-08-06T09:59:45;22.30;1.00
19000;DHT22;9633;50.980;13.850;2022-08-06T10:01:23;23.30;1.00
19000;DHT22;9633;50.980;13.850;2022-08-06T10:02:59;22.40;1.00
19000;DHT22;9633;50.980;13.850;2022-08-06T10:04:54;22.30;1.00
19000;DHT22;9633;50.980;13.850;2022-08-06T10:06:28;23.40;1.00
19000;DHT22;9633;50.980;13.850;2022-08-06T10:08:04;23.80;1.00
19000;DHT22;9633;50.980;13.850;2022-08-06T10:09:51;23.20;1.00
19000;DHT22;9633;50.980;13.850;2022-08-06T10:11:33;22.60;1.00
19000;DHT22;9633;50.980;13.850;2022-08-06T10:13:16;22.40;1.00
19000;DHT22;9633;50.980;13.850;2022-08-06T10:14:50;22.80;1.00
19000;DHT22;9633;50.980;13.850;2022-08-06T10:16:26;22.80;1.80
19000;DHT22;9633;50.980;13.850;2022-08-06T10:18:01;22.30;1.30
19000;DHT22;9633;50.980;13.850;2022-08-06T10:19:35;22.60;1.00
19000;DHT22;9633;50.980;13.850;2022-08-06T10:21:11;22.30;1.00
19000;DHT22;9633;50.980;13.850;2022-08-06T10:22:50;22.50;1.00
19000;DHT22;9633;50.980;13.850;2022-08-06T10:24:28;23.20;1.00
19000;DHT22;9633;50.980;13.850;2022-08-06T10:26:24;24.50;3.10
19000;DHT22;9633;50.980;13.850;2022-08-06T10:28:01;23.70;7.80
19000;DHT22;9633;50.980;13.850;2022-08-06T10:29:41;22.80;16.90
19000;DHT22;9633;50.980;13.850;2022-08-06T10:31:15;22.10;13.30
19000;DHT22;9633;50.980;13.850;2022-08-06T10:32:55;22.40;13.60
19000;DHT22;9633;50.980;13.850;2022-08-06T10:34:31;22.80;17.10
19000;DHT22;9633;50.980;13.850;2022-08-06T10:36:11;23.20;18.50
19000;DHT22;9633;50.980;13.850;2022-08-06T10:37:57;24.60;21.40
19000;DHT22;9633;50.980;13.850;2022-08-06T10:39:46;23.70;21.50
19000;DHT22;9633;50.980;13.850;2022-08-06T10:41:40;23.90;17.70
19000;DHT22;9633;50.980;13.850;2022-08-06T10:43:37;22.00;4.70
19000;DHT22;9633;50.980;13.850;2022-08-06T10:45:16;22.20;1.00
19000;DHT22;9633;50.980;13.850;2022-08-06T10:46:51;22.20;1.00
19000;DHT22;9633;50.980;13.850;2022-08-06T10:48:24;22.50;1.00
19000;DHT22;9633;50.980;13.850;2022-08-06T10:50:18;23.10;1.00
19000;DHT22;9633;50.980;13.850;2022-08-06T10:51:59;23.10;1.00
19000;DHT22;9633;50.980;13.850;2022-08-06T10:53:37;24.50;1.00
19000;DHT22;9633;50.980;13.850;2022-08-06T10:55:31;24.80;5.30